createdAt,value
2024-05-09T00:02:08.848Z,9.34
2024-05-09T00:04:35.992Z,9.32
2024-05-09T00:07:02.764Z,9.33
2024-05-09T00:09:29.450Z,9.28
2024-05-09T00:11:56.157Z,9.27
2024-05-09T00:14:22.963Z,9.22
2024-05-09T00:16:49.806Z,9.19
2024-05-09T00:19:16.663Z,9.20
2024-05-09T00:21:43.864Z,9.17
2024-05-09T00:24:10.531Z,9.10
2024-05-09T00:26:37.214Z,9.12
2024-05-09T00:29:03.934Z,9.09
2024-05-09T00:31:30.738Z,9.05
2024-05-09T00:33:57.713Z,8.98
2024-05-09T00:36:24.618Z,8.93
2024-05-09T00:38:51.315Z,8.85
2024-05-09T00:41:19.852Z,8.82
2024-05-09T00:43:46.700Z,8.78
2024-05-09T00:46:13.925Z,8.73
2024-05-09T00:48:41.362Z,8.71
2024-05-09T00:51:08.287Z,8.62
2024-05-09T00:53:35.283Z,8.58
2024-05-09T00:56:02.181Z,8.53
2024-05-09T00:58:29.788Z,8.50
2024-05-09T01:00:59.561Z,8.47
2024-05-09T01:03:27.181Z,8.43
2024-05-09T01:05:54.262Z,8.41
2024-05-09T01:08:21.362Z,8.36
2024-05-09T01:10:48.865Z,8.29
2024-05-09T01:13:15.741Z,8.24
2024-05-09T01:15:43.055Z,8.22
2024-05-09T01:18:12.356Z,8.23
2024-05-09T01:20:43.327Z,8.22
2024-05-09T01:23:14.551Z,8.23
2024-05-09T01:25:43.416Z,8.18
2024-05-09T01:28:10.176Z,8.12
2024-05-09T01:30:37.876Z,8.18
2024-05-09T01:33:08.092Z,8.21
2024-05-09T01:35:36.665Z,8.22
2024-05-09T01:38:03.734Z,8.22
2024-05-09T01:40:37.266Z,8.19
2024-05-09T01:43:06.908Z,8.19
2024-05-09T01:45:33.965Z,8.16
2024-05-09T01:48:01.031Z,8.17
2024-05-09T01:50:37.674Z,8.15
2024-05-09T01:53:08.823Z,8.13
2024-05-09T01:55:35.743Z,8.04
2024-05-09T01:58:02.421Z,8.02
2024-05-09T02:00:37.576Z,7.97
2024-05-09T02:03:10.436Z,7.91
2024-05-09T02:05:38.441Z,7.87
2024-05-09T02:08:06.605Z,7.73
2024-05-09T02:10:33.689Z,7.77
2024-05-09T02:13:00.803Z,7.73
2024-05-09T02:15:27.906Z,7.70
2024-05-09T02:17:54.829Z,7.67
2024-05-09T02:20:30.483Z,7.65
2024-05-09T02:23:04.429Z,7.60
2024-05-09T02:25:32.007Z,7.55
2024-05-09T02:27:58.956Z,7.56
2024-05-09T02:30:35.672Z,7.58
2024-05-09T02:33:07.123Z,7.57
2024-05-09T02:35:34.306Z,7.56
2024-05-09T02:38:01.151Z,7.56
2024-05-09T02:40:35.819Z,7.56
2024-05-09T02:43:05.371Z,7.48
2024-05-09T02:45:32.335Z,7.45
2024-05-09T02:47:59.313Z,7.47
2024-05-09T02:50:33.959Z,7.45
2024-05-09T02:53:05.425Z,7.41
2024-05-09T02:55:32.547Z,7.38
2024-05-09T02:57:59.445Z,7.30
2024-05-09T03:00:34.811Z,7.28
2024-05-09T03:03:08.589Z,7.22
2024-05-09T03:05:37.328Z,7.18
2024-05-09T03:08:04.495Z,7.14
2024-05-09T03:10:36.022Z,7.11
2024-05-09T03:13:14.568Z,7.06
2024-05-09T03:15:42.956Z,6.99
2024-05-09T03:18:10.173Z,6.95
2024-05-09T03:20:38.632Z,6.91
2024-05-09T03:23:08.147Z,6.90
2024-05-09T03:25:36.070Z,6.87
2024-05-09T03:28:02.857Z,6.87
2024-05-09T03:30:38.082Z,6.84
2024-05-09T03:33:13.470Z,6.84
2024-05-09T03:35:41.184Z,6.86
2024-05-09T03:38:08.123Z,6.90
2024-05-09T03:40:34.807Z,6.92
2024-05-09T03:43:01.542Z,6.96
2024-05-09T03:45:28.189Z,6.97
2024-05-09T03:47:55.118Z,6.94
2024-05-09T03:50:29.917Z,6.95
2024-05-09T03:53:01.777Z,6.98
2024-05-09T03:55:28.645Z,7.05
2024-05-09T03:57:55.526Z,7.08
2024-05-09T04:00:30.955Z,7.07
2024-05-09T04:03:04.698Z,7.13
2024-05-09T04:05:33.040Z,7.17
2024-05-09T04:07:59.962Z,7.17
2024-05-09T04:10:32.799Z,7.22
2024-05-09T04:13:01.343Z,7.26
2024-05-09T04:15:28.127Z,7.29
2024-05-09T04:17:55.095Z,7.29
2024-05-09T04:20:32.956Z,7.30
2024-05-09T04:23:06.016Z,7.36
2024-05-09T04:25:32.904Z,7.39
2024-05-09T04:27:59.558Z,7.45
2024-05-09T04:30:34.762Z,7.52
2024-05-09T04:33:06.365Z,7.55
2024-05-09T04:35:34.299Z,7.62
2024-05-09T04:38:01.433Z,7.71
2024-05-09T04:40:33.539Z,7.77
2024-05-09T04:43:03.524Z,7.84
2024-05-09T04:45:30.596Z,7.90
2024-05-09T04:47:57.485Z,7.97
2024-05-09T04:50:33.533Z,8.05
2024-05-09T04:53:04.938Z,8.11
2024-05-09T04:55:32.379Z,8.18
2024-05-09T04:57:59.137Z,8.23
2024-05-09T05:00:32.596Z,8.26
2024-05-09T05:03:10.794Z,8.37
2024-05-09T05:05:43.527Z,8.42
2024-05-09T05:08:12.434Z,8.50
2024-05-09T05:10:39.589Z,8.54
2024-05-09T05:13:25.114Z,8.66
2024-05-09T05:15:57.230Z,8.72
2024-05-09T05:18:26.179Z,8.70
2024-05-09T05:20:53.446Z,8.70
2024-05-09T05:23:21.694Z,8.85
2024-05-09T05:25:49.948Z,8.91
2024-05-09T05:28:17.458Z,9.03
2024-05-09T05:30:44.681Z,9.17
2024-05-09T05:33:16.064Z,9.26
2024-05-09T05:35:43.283Z,9.44
2024-05-09T05:38:11.041Z,9.60
2024-05-09T05:40:39.234Z,9.78
2024-05-09T05:43:11.097Z,9.96
2024-05-09T05:45:38.587Z,10.12
2024-05-09T05:48:06.942Z,10.28
2024-05-09T05:50:37.369Z,10.39
2024-05-09T05:53:09.607Z,10.54
2024-05-09T05:55:37.934Z,10.70
2024-05-09T05:58:04.988Z,10.81
2024-05-09T06:03:01.684Z,11.12
2024-05-09T06:05:28.974Z,11.33
2024-05-09T06:07:55.803Z,11.47
2024-05-09T06:10:26.349Z,11.55
2024-05-09T06:13:01.414Z,11.55
2024-05-09T06:15:28.078Z,11.62
2024-05-09T06:17:54.920Z,11.78
2024-05-09T06:20:31.260Z,12.10
2024-05-09T06:23:03.256Z,12.44
2024-05-09T06:25:30.043Z,12.80
2024-05-09T06:27:56.704Z,13.17
2024-05-09T06:30:30.394Z,13.57
2024-05-09T06:33:05.974Z,13.91
2024-05-09T06:35:33.714Z,14.33
2024-05-09T06:38:01.219Z,14.79
2024-05-09T06:40:36.355Z,15.15
2024-05-09T06:43:05.964Z,15.58
2024-05-09T06:45:32.728Z,16.04
2024-05-09T06:47:59.809Z,16.64
2024-05-09T06:50:28.734Z,17.09
2024-05-09T06:53:02.714Z,17.50
2024-05-09T06:55:29.519Z,17.79
2024-05-09T06:57:56.187Z,18.07
2024-05-09T07:00:30.504Z,18.34
2024-05-09T07:03:13.071Z,18.57
2024-05-09T07:05:42.520Z,18.76
2024-05-09T07:08:09.560Z,18.76
2024-05-09T07:10:37.084Z,18.88
2024-05-09T07:13:11.680Z,19.42
2024-05-09T07:15:38.924Z,19.89
2024-05-09T07:18:13.924Z,20.38
2024-05-09T07:20:41.272Z,20.95
2024-05-09T07:23:12.186Z,21.49
2024-05-09T07:25:40.205Z,21.92
2024-05-09T07:28:17.179Z,22.27
2024-05-09T07:30:44.326Z,22.70
2024-05-09T07:33:19.196Z,22.68
2024-05-09T07:35:46.768Z,22.71
2024-05-09T07:38:13.668Z,23.07
2024-05-09T07:40:41.736Z,23.47
2024-05-09T07:43:10.633Z,23.79
2024-05-09T07:45:48.572Z,24.09
2024-05-09T07:53:38.911Z,25.08
2024-05-09T07:56:07.828Z,25.32
2024-05-09T07:58:34.820Z,25.43
2024-05-09T08:01:04.510Z,25.69
2024-05-09T08:03:38.955Z,25.52
2024-05-09T08:06:05.889Z,25.28
2024-05-09T08:08:32.836Z,25.14
2024-05-09T08:10:59.661Z,24.75
2024-05-09T08:13:29.066Z,24.82
2024-05-09T08:15:56.976Z,25.03
2024-05-09T08:18:24.051Z,25.25
2024-05-09T08:20:52.413Z,25.31
2024-05-09T08:23:19.244Z,25.51
2024-05-09T08:25:45.908Z,25.84
2024-05-09T08:28:12.933Z,25.93
2024-05-09T08:30:39.810Z,26.12
2024-05-09T08:33:07.568Z,25.91
2024-05-09T08:35:35.243Z,25.67
2024-05-09T08:38:03.311Z,25.41
2024-05-09T08:40:35.580Z,25.60
2024-05-09T08:43:07.858Z,26.02
2024-05-09T08:45:38.901Z,26.23
2024-05-09T08:48:08.209Z,26.41
2024-05-09T08:50:39.214Z,26.50
2024-05-09T08:53:07.875Z,26.56
2024-05-09T08:55:37.404Z,26.82
2024-05-09T08:58:07.509Z,27.01
2024-05-09T09:00:37.222Z,27.14
2024-05-09T09:03:09.130Z,27.24
2024-05-09T09:05:38.997Z,26.85
2024-05-09T09:08:08.022Z,26.73
2024-05-09T09:10:35.539Z,26.51
2024-05-09T09:13:04.728Z,26.19
2024-05-09T09:15:32.081Z,26.07
2024-05-09T09:18:01.826Z,25.87
2024-05-09T09:20:35.496Z,25.76
2024-05-09T09:23:04.207Z,25.63
2024-05-09T09:25:31.167Z,25.45
2024-05-09T09:27:58.435Z,25.37
2024-05-09T09:30:35.022Z,25.22
2024-05-09T09:33:05.023Z,25.22
2024-05-09T09:35:32.716Z,25.15
2024-05-09T09:38:03.102Z,25.04
2024-05-09T09:40:49.542Z,24.96
2024-05-09T09:43:22.080Z,24.93
2024-05-09T09:45:53.535Z,24.70
2024-05-09T09:48:21.731Z,24.31
2024-05-09T09:50:51.942Z,24.12
2024-05-09T09:53:19.494Z,24.27
2024-05-09T09:55:47.107Z,24.28
2024-05-09T09:58:14.822Z,24.37
2024-05-09T10:00:42.007Z,24.31
2024-05-09T10:03:09.422Z,24.38
2024-05-09T10:05:37.264Z,24.18
2024-05-09T10:08:08.218Z,23.78
2024-05-09T10:10:35.955Z,23.56
2024-05-09T10:13:07.595Z,23.40
2024-05-09T10:15:48.282Z,23.38
2024-05-09T10:18:15.603Z,23.46
2024-05-09T10:20:46.193Z,23.59
2024-05-09T10:23:32.992Z,23.52
2024-05-09T10:26:05.202Z,23.28
2024-05-09T10:28:34.088Z,23.00
2024-05-09T10:31:11.756Z,22.71
2024-05-09T10:33:51.996Z,22.79
2024-05-09T10:36:22.536Z,23.06
2024-05-09T10:38:50.189Z,23.18
2024-05-09T10:41:17.538Z,23.44
2024-05-09T10:43:44.585Z,23.24
2024-05-09T10:46:12.091Z,23.38
2024-05-09T10:48:40.022Z,23.45
2024-05-09T10:51:06.844Z,23.40
2024-05-09T10:53:47.052Z,23.47
2024-05-09T10:56:14.695Z,23.82
2024-05-09T10:58:41.371Z,24.12
2024-05-09T11:01:09.318Z,24.15
2024-05-09T11:03:36.847Z,24.36
2024-05-09T11:06:03.966Z,24.46
2024-05-09T11:08:32.291Z,24.48
2024-05-09T11:10:59.850Z,24.52
2024-05-09T11:13:34.865Z,24.73
2024-05-09T11:16:02.700Z,24.88
2024-05-09T11:18:35.115Z,24.96
2024-05-09T11:21:14.485Z,25.11
2024-05-09T11:23:41.402Z,25.20
2024-05-09T11:26:09.196Z,25.39
2024-05-09T11:28:35.859Z,25.16
2024-05-09T11:31:10.491Z,25.01
2024-05-09T11:33:43.103Z,24.86
2024-05-09T11:36:10.477Z,24.62
2024-05-09T11:38:37.324Z,24.55
2024-05-09T11:41:05.043Z,24.41
2024-05-09T11:43:31.906Z,24.21
2024-05-09T11:45:59.209Z,24.07
2024-05-09T11:48:26.896Z,24.05
2024-05-09T11:50:54.717Z,24.01
2024-05-09T11:53:21.318Z,23.97
2024-05-09T11:55:47.947Z,24.01
2024-05-09T11:58:17.538Z,24.15
2024-05-09T12:00:45.027Z,24.24
2024-05-09T12:03:11.769Z,24.09
2024-05-09T12:05:38.621Z,23.85
2024-05-09T12:08:06.361Z,23.63
2024-05-09T12:10:35.526Z,23.63
2024-05-09T12:13:05.404Z,23.55
2024-05-09T12:15:34.049Z,23.54
2024-05-09T12:18:03.591Z,23.46
2024-05-09T12:20:36.860Z,23.42
2024-05-09T12:23:06.484Z,23.38
2024-05-09T12:25:33.241Z,23.42
2024-05-09T12:28:00.486Z,23.51
2024-05-09T12:30:35.539Z,23.89
2024-05-09T12:33:06.535Z,24.26
2024-05-09T12:35:33.309Z,24.41
2024-05-09T12:37:59.989Z,24.52
2024-05-09T12:40:34.699Z,24.45
2024-05-09T12:43:05.036Z,24.36
2024-05-09T12:45:32.892Z,24.18
2024-05-09T12:47:59.741Z,23.99
2024-05-09T12:50:32.356Z,23.88
2024-05-09T12:53:01.313Z,23.91
2024-05-09T12:55:29.756Z,24.14
2024-05-09T12:57:58.621Z,24.23
2024-05-09T13:00:31.477Z,24.39
2024-05-09T13:03:01.164Z,24.61
2024-05-09T13:05:28.314Z,24.86
2024-05-09T13:07:56.812Z,24.97
2024-05-09T13:10:30.828Z,25.00
2024-05-09T13:13:00.019Z,25.22
2024-05-09T13:15:27.088Z,25.17
2024-05-09T13:17:54.828Z,24.84
2024-05-09T13:20:29.486Z,24.20
2024-05-09T13:23:01.812Z,23.83
2024-05-09T13:25:28.649Z,23.09
2024-05-09T13:27:55.975Z,22.40
2024-05-09T13:30:29.621Z,21.89
2024-05-09T13:33:05.883Z,21.54
2024-05-09T13:35:34.532Z,21.32
2024-05-09T13:38:02.170Z,21.23
2024-05-09T13:40:33.699Z,21.03
2024-05-09T13:43:02.831Z,20.79
2024-05-09T13:45:29.669Z,20.44
2024-05-09T13:47:56.867Z,20.22
2024-05-09T13:50:31.557Z,20.06
2024-05-09T13:53:02.151Z,19.96
2024-05-09T13:55:28.879Z,19.78
2024-05-09T13:57:55.800Z,19.76
2024-05-09T14:00:32.282Z,19.70
2024-05-09T14:03:09.462Z,19.64
2024-05-09T14:05:36.401Z,19.48
2024-05-09T14:08:03.239Z,19.45
2024-05-09T14:10:31.879Z,19.35
2024-05-09T14:12:59.997Z,19.33
2024-05-09T14:15:27.038Z,19.31
2024-05-09T14:17:54.604Z,19.26
2024-05-09T14:22:50.854Z,19.11
2024-05-09T14:25:17.608Z,19.25
2024-05-09T14:27:44.371Z,19.36
2024-05-09T14:30:18.251Z,19.30
2024-05-09T14:32:52.945Z,19.27
2024-05-09T14:35:19.828Z,19.20
2024-05-09T14:37:46.535Z,19.32
2024-05-09T14:40:30.344Z,19.34
2024-05-09T14:43:03.198Z,19.30
2024-05-09T14:45:30.193Z,19.28
2024-05-09T14:47:57.315Z,19.28
2024-05-09T14:50:32.515Z,19.31
2024-05-09T14:53:03.493Z,19.35
2024-05-09T14:55:30.363Z,19.49
2024-05-09T14:57:57.165Z,19.56
2024-05-09T15:00:28.915Z,19.60
2024-05-09T15:03:00.475Z,19.66
2024-05-09T15:05:27.421Z,19.66
2024-05-09T15:07:54.318Z,19.70
2024-05-09T15:10:27.353Z,19.71
2024-05-09T15:13:01.234Z,19.70
2024-05-09T15:15:27.917Z,19.78
2024-05-09T15:17:55.231Z,19.77
2024-05-09T15:20:30.803Z,19.84
2024-05-09T15:23:01.747Z,19.67
2024-05-09T15:25:28.413Z,19.64
2024-05-09T15:27:55.190Z,19.52
2024-05-09T15:30:29.981Z,19.42
2024-05-09T15:32:59.149Z,19.35
2024-05-09T15:35:25.775Z,19.32
2024-05-09T15:37:52.448Z,19.40
2024-05-09T15:40:26.644Z,19.46
2024-05-09T15:43:02.506Z,19.43
2024-05-09T15:45:29.512Z,19.30
2024-05-09T15:47:57.044Z,19.30
2024-05-09T15:50:35.148Z,19.26
2024-05-09T15:53:06.326Z,19.25
2024-05-09T15:55:34.108Z,19.22
2024-05-09T15:58:02.799Z,19.22
2024-05-09T16:00:37.401Z,19.12
2024-05-09T16:03:07.940Z,19.06
2024-05-09T16:05:34.905Z,19.08
2024-05-09T16:08:01.866Z,19.06
2024-05-09T16:10:32.715Z,18.99
2024-05-09T16:13:01.900Z,18.98
2024-05-09T16:15:28.996Z,18.87
2024-05-09T16:17:56.334Z,18.82
2024-05-09T16:22:52.711Z,18.91
2024-05-09T16:25:19.415Z,18.89
2024-05-09T16:27:46.212Z,18.95
2024-05-09T16:30:20.977Z,19.07
2024-05-09T16:32:54.054Z,19.15
2024-05-09T16:35:20.682Z,19.19
2024-05-09T16:37:47.791Z,19.32
2024-05-09T16:40:22.155Z,19.45
2024-05-09T16:42:56.755Z,19.42
2024-05-09T16:45:23.367Z,19.52
2024-05-09T16:47:50.454Z,19.45
2024-05-09T16:50:25.731Z,19.25
2024-05-09T16:52:55.711Z,19.00
2024-05-09T16:55:22.560Z,18.82
2024-05-09T16:57:49.503Z,18.73
2024-05-09T17:00:25.235Z,18.73
2024-05-09T17:02:58.217Z,18.62
2024-05-09T17:05:25.042Z,18.60
2024-05-09T17:07:51.742Z,18.47
2024-05-09T17:10:26.587Z,18.40
2024-05-09T17:12:58.808Z,18.26
2024-05-09T17:15:25.796Z,18.14
2024-05-09T17:17:52.562Z,18.05
2024-05-09T17:20:29.270Z,17.95
2024-05-09T17:23:00.375Z,17.90
2024-05-09T17:25:27.083Z,17.85
2024-05-09T17:27:54.419Z,17.77
2024-05-09T17:30:28.857Z,17.73
2024-05-09T17:33:01.583Z,17.72
2024-05-09T17:35:28.416Z,17.74
2024-05-09T17:37:55.033Z,17.73
2024-05-09T17:40:30.710Z,17.75
2024-05-09T17:43:01.475Z,17.72
2024-05-09T17:45:28.299Z,17.71
2024-05-09T17:47:55.190Z,17.68
2024-05-09T17:50:27.971Z,17.70
2024-05-09T17:53:01.059Z,17.65
2024-05-09T17:55:27.839Z,17.65
2024-05-09T17:57:54.511Z,17.68
2024-05-09T18:00:29.508Z,17.69
2024-05-09T18:03:04.549Z,17.65
2024-05-09T18:05:31.579Z,17.60
2024-05-09T18:07:58.532Z,17.60
2024-05-09T18:10:32.841Z,17.56
2024-05-09T18:13:03.700Z,17.50
2024-05-09T18:15:30.446Z,17.42
2024-05-09T18:17:57.510Z,17.43
2024-05-09T18:20:33.007Z,17.33
2024-05-09T18:23:07.710Z,17.33
2024-05-09T18:25:34.344Z,17.29
2024-05-09T18:28:04.495Z,17.19
2024-05-09T18:30:34.661Z,17.17
2024-05-09T18:33:03.563Z,17.14
2024-05-09T18:35:30.355Z,17.04
2024-05-09T18:37:57.054Z,17.05
2024-05-09T18:42:53.279Z,16.84
2024-05-09T18:45:19.977Z,16.81
2024-05-09T18:47:46.716Z,16.74
2024-05-09T18:50:20.487Z,16.64
2024-05-09T18:52:54.301Z,16.51
2024-05-09T18:55:20.935Z,16.50
2024-05-09T18:57:47.580Z,16.43
2024-05-09T19:00:26.637Z,16.34
2024-05-09T19:03:00.551Z,16.31
2024-05-09T19:05:27.615Z,16.25
2024-05-09T19:07:54.469Z,16.17
2024-05-09T19:10:23.047Z,16.07
2024-05-09T19:12:52.873Z,16.00
2024-05-09T19:15:19.604Z,15.99
2024-05-09T19:17:48.217Z,15.93
2024-05-09T19:20:24.610Z,15.82
2024-05-09T19:22:55.421Z,15.74
2024-05-09T19:25:22.000Z,15.69
2024-05-09T19:27:48.681Z,15.61
2024-05-09T19:30:25.012Z,15.59
2024-05-09T19:33:00.311Z,15.45
2024-05-09T19:35:26.963Z,15.40
2024-05-09T19:37:53.663Z,15.30
2024-05-09T19:40:28.598Z,15.27
2024-05-09T19:42:58.531Z,15.21
2024-05-09T19:45:25.245Z,15.08
2024-05-09T19:47:52.126Z,15.07
2024-05-09T19:50:26.692Z,14.90
2024-05-09T19:52:59.518Z,14.81
2024-05-09T19:55:26.473Z,14.73
2024-05-09T19:57:53.032Z,14.63
2024-05-09T20:00:26.233Z,14.48
2024-05-09T20:02:59.004Z,14.43
2024-05-09T20:05:26.551Z,14.34
2024-05-09T20:07:53.955Z,14.21
2024-05-09T20:10:24.039Z,14.16
2024-05-09T20:12:56.146Z,14.07
2024-05-09T20:15:22.747Z,14.01
2024-05-09T20:17:49.532Z,13.96
2024-05-09T20:20:27.380Z,13.82
2024-05-09T20:23:00.016Z,13.82
2024-05-09T20:25:26.585Z,13.81
2024-05-09T20:27:53.329Z,13.73
2024-05-09T20:30:28.965Z,13.80
2024-05-09T20:32:59.842Z,13.73
2024-05-09T20:35:26.857Z,13.77
2024-05-09T20:37:53.685Z,13.73
2024-05-09T20:40:28.364Z,13.66
2024-05-09T20:42:59.295Z,13.63
2024-05-09T20:45:25.992Z,13.57
2024-05-09T20:47:52.975Z,13.46
2024-05-09T20:50:28.307Z,13.40
2024-05-09T20:53:02.754Z,13.32
2024-05-09T20:55:30.018Z,13.29
2024-05-09T20:57:57.275Z,13.16
2024-05-09T21:00:30.361Z,13.01
2024-05-09T21:03:06.167Z,12.89
2024-05-09T21:05:33.548Z,12.86
2024-05-09T21:08:00.467Z,12.70
2024-05-09T21:10:29.689Z,12.66
2024-05-09T21:12:58.343Z,12.52
2024-05-09T21:15:25.019Z,12.36
2024-05-09T21:17:51.618Z,12.27
2024-05-09T21:20:23.967Z,12.23
2024-05-09T21:22:55.559Z,12.12
2024-05-09T21:25:22.564Z,12.05
2024-05-09T21:27:49.295Z,11.97
2024-05-09T21:30:22.707Z,11.90
2024-05-09T21:32:58.107Z,11.93
2024-05-09T21:35:24.723Z,11.84
2024-05-09T21:37:51.496Z,11.84
2024-05-09T21:40:27.013Z,11.75
2024-05-09T21:43:00.326Z,11.70
2024-05-09T21:45:27.018Z,11.61
2024-05-09T21:47:53.715Z,11.54
2024-05-09T21:50:27.553Z,11.48
2024-05-09T21:52:58.931Z,11.38
2024-05-09T21:55:25.557Z,11.36
2024-05-09T21:57:52.265Z,11.24
2024-05-09T22:00:28.650Z,11.20
2024-05-09T22:03:02.129Z,11.15
2024-05-09T22:05:29.146Z,11.13
2024-05-09T22:07:55.984Z,11.07
2024-05-09T22:10:26.978Z,11.08
2024-05-09T22:12:59.814Z,11.06
2024-05-09T22:15:26.442Z,11.01
2024-05-09T22:17:53.758Z,11.01
2024-05-09T22:20:28.774Z,11.10
2024-05-09T22:23:02.580Z,11.08
2024-05-09T22:25:30.981Z,11.08
2024-05-09T22:27:58.620Z,10.95
2024-05-09T22:30:34.021Z,10.91
2024-05-09T22:33:05.397Z,10.90
2024-05-09T22:35:32.321Z,10.84
2024-05-09T22:37:58.954Z,10.80
2024-05-09T22:40:37.915Z,10.74
2024-05-09T22:43:12.591Z,10.61
2024-05-09T22:45:39.455Z,10.58
2024-05-09T22:48:07.090Z,10.47
2024-05-09T22:50:34.093Z,10.48
2024-05-09T22:53:01.109Z,10.40
2024-05-09T22:55:27.902Z,10.38
2024-05-09T22:57:54.683Z,10.39
2024-05-09T23:00:29.314Z,10.35
2024-05-09T23:03:02.478Z,10.32
2024-05-09T23:05:29.693Z,10.27
2024-05-09T23:07:56.818Z,10.25
2024-05-09T23:10:31.436Z,10.25
2024-05-09T23:13:02.884Z,10.18
2024-05-09T23:15:29.753Z,10.10
2024-05-09T23:17:57.354Z,10.06
2024-05-09T23:22:53.896Z,9.99
2024-05-09T23:25:20.461Z,10.06
2024-05-09T23:27:47.136Z,10.03
2024-05-09T23:30:21.878Z,10.05
2024-05-09T23:32:55.362Z,10.02
2024-05-09T23:35:22.035Z,10.03
2024-05-09T23:37:48.613Z,10.11
2024-05-09T23:40:18.807Z,10.07
2024-05-09T23:42:49.340Z,10.05
2024-05-09T23:45:16.077Z,10.06
2024-05-09T23:47:42.757Z,10.05
2024-05-09T23:50:16.576Z,9.99
2024-05-09T23:52:47.396Z,10.02
2024-05-09T23:55:14.230Z,9.97
2024-05-09T23:57:41.153Z,9.96
